createdAt,value
2022-11-25T00:01:32.750Z,18.20
2022-11-25T00:04:00.625Z,19.30
2022-11-25T00:06:33.804Z,19.20
2022-11-25T00:09:14.796Z,16.20
2022-11-25T00:11:43.255Z,17.00
2022-11-25T00:14:14.519Z,17.90
2022-11-25T00:16:46.699Z,16.10
2022-11-25T00:19:16.106Z,17.10
2022-11-25T00:21:43.858Z,19.00
2022-11-25T00:24:14.261Z,19.00
2022-11-25T00:26:43.514Z,17.30
2022-11-25T00:29:12.975Z,17.40
2022-11-25T00:31:41.006Z,18.30
2022-11-25T00:34:13.243Z,16.20
2022-11-25T00:36:40.825Z,18.60
2022-11-25T00:39:14.337Z,17.40
2022-11-25T00:41:59.331Z,16.70
2022-11-25T00:44:44.421Z,17.80
2022-11-25T00:47:14.536Z,19.30
2022-11-25T00:49:47.275Z,17.80
2022-11-25T00:52:17.267Z,17.80
2022-11-25T00:54:47.792Z,17.00
2022-11-25T00:57:17.570Z,16.60
2022-11-25T00:59:45.351Z,17.20
2022-11-25T01:02:14.920Z,18.20
2022-11-25T01:04:43.015Z,18.20
2022-11-25T01:07:11.500Z,16.40
2022-11-25T01:09:39.072Z,17.30
2022-11-25T01:12:06.769Z,17.70
2022-11-25T01:14:35.183Z,16.20
2022-11-25T01:17:03.333Z,17.80
2022-11-25T01:19:30.830Z,16.40
2022-11-25T01:21:58.305Z,18.00
2022-11-25T01:24:26.580Z,17.10
2022-11-25T01:26:55.752Z,20.00
2022-11-25T01:29:23.308Z,18.30
2022-11-25T01:31:54.392Z,18.60
2022-11-25T01:34:24.739Z,19.80
2022-11-25T01:36:52.256Z,18.80
2022-11-25T01:39:25.628Z,17.60
2022-11-25T01:41:58.031Z,17.30
2022-11-25T01:44:31.149Z,18.80
2022-11-25T01:47:14.565Z,17.50
2022-11-25T01:49:55.353Z,17.70
2022-11-25T01:52:28.003Z,18.00
2022-11-25T01:55:08.086Z,18.20
2022-11-25T01:57:39.656Z,17.50
2022-11-25T02:00:09.227Z,17.70
2022-11-25T02:02:36.946Z,19.70
2022-11-25T02:05:09.567Z,18.90
2022-11-25T02:07:41.421Z,20.00
2022-11-25T02:10:14.454Z,18.40
2022-11-25T02:12:44.427Z,18.70
2022-11-25T02:15:13.744Z,18.80
2022-11-25T02:17:43.643Z,17.00
2022-11-25T02:20:17.857Z,18.30
2022-11-25T02:23:17.310Z,20.20
2022-11-25T02:25:46.741Z,17.90
2022-11-25T02:28:18.321Z,17.50
2022-11-25T02:30:46.462Z,17.40
2022-11-25T02:33:15.472Z,16.90
2022-11-25T02:36:01.948Z,18.20
2022-11-25T02:38:49.403Z,17.30
2022-11-25T02:41:22.683Z,18.80
2022-11-25T02:43:50.681Z,17.90
2022-11-25T02:46:22.831Z,18.90
2022-11-25T02:49:08.498Z,18.10
2022-11-25T02:51:38.109Z,19.80
2022-11-25T02:54:06.138Z,18.80
2022-11-25T02:56:35.470Z,19.00
2022-11-25T02:59:04.067Z,18.70
2022-11-25T03:01:32.963Z,17.20
2022-11-25T03:04:00.756Z,16.50
2022-11-25T03:06:29.712Z,18.10
2022-11-25T03:08:57.762Z,18.90
2022-11-25T03:11:45.251Z,18.60
2022-11-25T03:14:12.817Z,17.50
2022-11-25T03:16:40.538Z,20.20
2022-11-25T03:19:08.570Z,19.40
2022-11-25T03:21:36.157Z,18.20
2022-11-25T03:24:03.834Z,16.60
2022-11-25T03:26:31.392Z,18.30
2022-11-25T03:28:58.860Z,18.60
2022-11-25T03:31:26.443Z,17.60
2022-11-25T03:33:56.339Z,17.30
2022-11-25T03:36:25.155Z,16.50
2022-11-25T03:38:52.630Z,16.40
2022-11-25T03:41:20.501Z,16.80
2022-11-25T03:43:48.900Z,17.90
2022-11-25T03:46:16.490Z,16.40
2022-11-25T03:48:44.186Z,16.80
2022-11-25T03:51:11.753Z,18.00
2022-11-25T03:53:39.231Z,17.70
2022-11-25T03:56:07.989Z,17.30
2022-11-25T03:58:35.571Z,15.50
2022-11-25T04:01:03.775Z,16.30
2022-11-25T04:03:31.915Z,14.20
2022-11-25T04:05:59.693Z,15.70
2022-11-25T04:08:27.478Z,16.00
2022-11-25T04:10:55.156Z,15.00
2022-11-25T04:13:22.649Z,16.20
2022-11-25T04:15:51.366Z,15.90
2022-11-25T04:18:20.133Z,15.80
2022-11-25T04:20:47.636Z,15.80
2022-11-25T04:23:15.119Z,15.90
2022-11-25T04:25:42.850Z,20.20
2022-11-25T04:28:10.384Z,16.50
2022-11-25T04:30:39.185Z,18.50
2022-11-25T04:33:07.108Z,17.40
2022-11-25T04:35:34.588Z,15.50
2022-11-25T04:38:02.047Z,15.20
2022-11-25T04:40:29.518Z,16.40
2022-11-25T04:43:03.487Z,15.20
2022-11-25T04:45:51.869Z,15.20
2022-11-25T04:48:21.116Z,14.60
2022-11-25T04:50:48.615Z,15.60
2022-11-25T04:53:16.258Z,14.70
2022-11-25T04:55:43.815Z,15.10
2022-11-25T04:58:11.608Z,16.20
2022-11-25T05:00:39.310Z,16.60
2022-11-25T05:03:07.088Z,14.80
2022-11-25T05:05:34.584Z,16.00
2022-11-25T05:08:02.036Z,15.90
2022-11-25T05:10:29.535Z,16.00
2022-11-25T05:12:56.981Z,14.20
2022-11-25T05:15:24.472Z,16.60
2022-11-25T05:17:52.558Z,15.20
2022-11-25T05:20:20.029Z,13.80
2022-11-25T05:22:47.514Z,15.50
2022-11-25T05:25:16.559Z,15.50
2022-11-25T05:27:44.441Z,16.60
2022-11-25T05:30:12.180Z,15.70
2022-11-25T05:32:40.561Z,16.80
2022-11-25T05:35:08.413Z,16.60
2022-11-25T05:37:36.119Z,27.60
2022-11-25T05:40:04.469Z,28.80
2022-11-25T05:42:31.928Z,21.70
2022-11-25T05:45:01.224Z,17.40
2022-11-25T05:47:28.936Z,20.00
2022-11-25T05:49:56.400Z,16.10
2022-11-25T05:52:23.884Z,16.90
2022-11-25T05:54:56.784Z,22.30
2022-11-25T05:57:25.002Z,26.00
2022-11-25T05:59:52.497Z,34.70
2022-11-25T06:02:20.111Z,19.20
2022-11-25T06:04:47.952Z,27.00
2022-11-25T06:07:15.609Z,32.30
2022-11-25T06:09:43.252Z,31.90
2022-11-25T06:12:10.742Z,20.60
2022-11-25T06:14:38.435Z,17.70
2022-11-25T06:17:06.053Z,22.50
2022-11-25T06:19:33.531Z,20.30
2022-11-25T06:22:01.012Z,20.70
2022-11-25T06:24:30.879Z,21.90
2022-11-25T06:26:58.501Z,19.30
2022-11-25T06:29:26.013Z,21.90
2022-11-25T06:31:54.033Z,18.50
2022-11-25T06:34:22.191Z,26.50
2022-11-25T06:36:49.766Z,21.80
2022-11-25T06:39:17.313Z,41.70
2022-11-25T06:41:45.458Z,25.50
2022-11-25T06:44:14.483Z,18.80
2022-11-25T06:46:42.163Z,19.80
2022-11-25T06:49:09.740Z,21.00
2022-11-25T06:51:37.296Z,26.60
2022-11-25T06:54:10.230Z,30.30
2022-11-25T06:56:39.413Z,22.40
2022-11-25T06:59:07.274Z,27.10
2022-11-25T07:01:35.105Z,24.10
2022-11-25T07:04:05.475Z,27.30
2022-11-25T07:06:33.486Z,22.20
2022-11-25T07:09:03.828Z,21.80
2022-11-25T07:11:39.240Z,18.00
2022-11-25T07:14:11.758Z,17.10
2022-11-25T07:16:43.512Z,17.10
2022-11-25T07:19:14.315Z,15.40
2022-11-25T07:21:44.475Z,17.60
2022-11-25T07:24:16.067Z,15.80
2022-11-25T07:26:44.270Z,14.70
2022-11-25T07:29:43.828Z,15.90
2022-11-25T07:32:07.301Z,20.50
2022-11-25T07:34:38.016Z,18.70
2022-11-25T07:37:05.570Z,16.30
2022-11-25T07:39:33.071Z,18.00
2022-11-25T07:42:02.545Z,17.50
2022-11-25T07:44:30.078Z,17.00
2022-11-25T07:46:57.668Z,14.90
2022-11-25T07:49:25.464Z,15.70
2022-11-25T07:51:55.682Z,16.70
2022-11-25T07:54:24.156Z,17.40
2022-11-25T07:56:52.267Z,19.60
2022-11-25T07:59:22.568Z,23.90
2022-11-25T08:01:54.712Z,20.10
2022-11-25T08:04:22.987Z,26.60
2022-11-25T08:06:52.092Z,23.90
2022-11-25T08:09:22.765Z,19.20
2022-11-25T08:11:51.305Z,17.50
2022-11-25T08:14:19.402Z,20.00
2022-11-25T08:16:47.179Z,19.40
2022-11-25T08:19:17.297Z,17.40
2022-11-25T08:21:47.826Z,19.60
2022-11-25T08:24:19.178Z,34.60
2022-11-25T08:26:49.506Z,38.60
2022-11-25T08:29:20.717Z,25.10
2022-11-25T08:31:48.430Z,22.50
2022-11-25T08:34:23.403Z,23.60
2022-11-25T08:36:51.978Z,26.70
2022-11-25T08:39:50.667Z,21.80
2022-11-25T08:42:09.142Z,25.50
2022-11-25T08:44:37.235Z,24.30
2022-11-25T08:47:04.918Z,26.00
2022-11-25T08:49:36.222Z,21.00
2022-11-25T08:52:09.725Z,32.90
2022-11-25T08:54:37.784Z,21.50
2022-11-25T08:57:06.291Z,24.30
2022-11-25T08:59:35.955Z,19.60
2022-11-25T09:02:04.836Z,16.00
2022-11-25T09:04:33.842Z,31.90
2022-11-25T09:07:04.790Z,20.40
2022-11-25T09:09:33.468Z,30.60
2022-11-25T09:12:01.311Z,22.40
2022-11-25T09:14:29.057Z,25.60
2022-11-25T09:16:59.269Z,14.00
2022-11-25T09:19:27.070Z,25.20
2022-11-25T09:21:55.095Z,17.90
2022-11-25T09:24:22.761Z,22.80
2022-11-25T09:26:51.050Z,17.10
2022-11-25T09:29:18.576Z,25.70
2022-11-25T09:31:50.052Z,21.80
2022-11-25T09:34:20.618Z,30.20
2022-11-25T09:36:48.094Z,29.10
2022-11-25T09:39:15.649Z,28.80
2022-11-25T09:42:12.795Z,22.10
2022-11-25T09:45:27.468Z,12.90
2022-11-25T09:48:01.507Z,25.90
2022-11-25T09:51:01.198Z,24.70
2022-11-25T09:53:42.245Z,13.60
2022-11-25T09:56:46.074Z,21.80
2022-11-25T09:59:35.861Z,17.70
2022-11-25T10:02:16.645Z,18.60
2022-11-25T10:04:50.283Z,21.10
2022-11-25T10:07:39.717Z,19.60
2022-11-25T10:10:19.651Z,24.60
2022-11-25T10:12:50.005Z,25.70
2022-11-25T10:15:27.283Z,23.00
2022-11-25T10:17:59.877Z,22.90
2022-11-25T10:20:35.279Z,21.20
2022-11-25T10:23:12.347Z,33.30
2022-11-25T10:25:45.879Z,20.20
2022-11-25T10:28:23.467Z,23.30
2022-11-25T10:30:51.108Z,21.30
2022-11-25T10:33:28.894Z,23.90
2022-11-25T10:36:30.896Z,16.80
2022-11-25T10:39:11.915Z,18.90
2022-11-25T10:42:09.524Z,15.70
2022-11-25T10:44:40.203Z,13.70
2022-11-25T10:47:40.725Z,18.90
2022-11-25T10:50:29.330Z,19.90
2022-11-25T10:53:10.265Z,18.80
2022-11-25T10:55:37.961Z,15.90
2022-11-25T10:58:27.507Z,16.50
2022-11-25T11:01:20.822Z,17.50
2022-11-25T11:04:05.433Z,16.00
2022-11-25T11:06:37.904Z,25.60
2022-11-25T11:09:06.337Z,29.20
2022-11-25T11:11:47.814Z,28.00
2022-11-25T11:14:20.272Z,22.60
2022-11-25T11:16:57.164Z,20.60
2022-11-25T11:19:30.003Z,21.70
2022-11-25T11:22:16.093Z,18.90
2022-11-25T11:24:43.564Z,14.40
2022-11-25T11:27:24.962Z,15.20
2022-11-25T11:30:11.362Z,16.60
2022-11-25T11:32:43.697Z,8.70
2022-11-25T11:35:30.328Z,20.50
2022-11-25T11:38:23.771Z,16.00
2022-11-25T11:41:08.039Z,26.60
2022-11-25T11:44:07.703Z,18.10
2022-11-25T11:47:13.369Z,20.80
2022-11-25T11:50:12.961Z,19.20
2022-11-25T11:52:57.458Z,20.20
2022-11-25T11:55:43.986Z,17.10
2022-11-25T11:58:31.777Z,17.50
2022-11-25T12:01:24.796Z,26.10
2022-11-25T12:04:09.546Z,24.10
2022-11-25T12:06:41.318Z,21.00
2022-11-25T12:09:15.470Z,18.20
2022-11-25T12:11:50.006Z,17.90
2022-11-25T12:14:39.428Z,25.80
2022-11-25T12:17:27.331Z,18.40
2022-11-25T12:20:17.189Z,17.70
2022-11-25T12:22:59.810Z,27.00
2022-11-25T12:25:36.024Z,17.00
2022-11-25T12:28:16.257Z,28.00
2022-11-25T12:31:06.034Z,17.40
2022-11-25T12:33:46.606Z,21.70
2022-11-25T12:36:25.270Z,17.70
2022-11-25T12:39:02.180Z,17.80
2022-11-25T12:41:53.453Z,32.60
2022-11-25T12:44:27.576Z,23.10
2022-11-25T12:46:57.079Z,25.90
2022-11-25T12:49:28.611Z,16.50
2022-11-25T12:52:28.820Z,12.10
2022-11-25T12:55:21.396Z,13.00
2022-11-25T12:58:27.153Z,15.90
2022-11-25T13:01:14.447Z,28.70
2022-11-25T13:04:14.210Z,19.50
2022-11-25T13:06:41.934Z,12.20
2022-11-25T13:09:26.412Z,14.80
2022-11-25T13:11:57.264Z,14.60
2022-11-25T13:14:57.642Z,14.40
2022-11-25T13:17:27.255Z,13.30
2022-11-25T13:20:36.337Z,14.40
2022-11-25T13:23:13.541Z,12.00
2022-11-25T13:25:46.066Z,12.90
2022-11-25T13:28:30.191Z,13.80
2022-11-25T13:31:22.853Z,29.70
2022-11-25T13:34:10.301Z,26.60
2022-11-25T13:36:47.312Z,19.90
2022-11-25T13:39:29.017Z,20.00
2022-11-25T13:42:19.458Z,20.20
2022-11-25T13:44:55.856Z,43.10
2022-11-25T13:47:39.343Z,54.60
2022-11-25T13:50:28.936Z,20.80
2022-11-25T13:53:30.006Z,33.40
2022-11-25T13:56:16.192Z,23.30
2022-11-25T13:59:18.558Z,26.30
2022-11-25T14:01:46.639Z,15.20
2022-11-25T14:04:16.241Z,15.50
2022-11-25T14:06:57.529Z,15.90
2022-11-25T14:09:45.139Z,17.60
2022-11-25T14:12:37.658Z,68.30
2022-11-25T14:15:28.657Z,135.40
2022-11-25T14:19:00.449Z,112.00
2022-11-25T14:21:51.286Z,80.80
2022-11-25T14:24:40.062Z,43.70
2022-11-25T14:27:22.519Z,41.80
2022-11-25T14:29:54.313Z,20.90
2022-11-25T14:32:39.141Z,14.30
2022-11-25T14:35:22.607Z,15.20
2022-11-25T14:37:58.583Z,18.10
2022-11-25T14:40:36.386Z,22.40
2022-11-25T14:43:18.780Z,17.70
2022-11-25T14:45:46.626Z,18.60
2022-11-25T14:48:21.918Z,23.00
2022-11-25T14:51:07.561Z,21.40
2022-11-25T14:53:47.331Z,13.90
2022-11-25T14:56:22.280Z,22.50
2022-11-25T14:58:52.436Z,21.00
2022-11-25T15:01:24.186Z,14.20
2022-11-25T15:04:15.716Z,12.80
2022-11-25T15:06:51.180Z,13.50
2022-11-25T15:09:24.226Z,11.50
2022-11-25T15:11:58.936Z,13.30
2022-11-25T15:14:30.057Z,20.00
2022-11-25T15:16:58.637Z,30.00
2022-11-25T15:19:33.760Z,34.40
2022-11-25T15:22:22.451Z,17.70
2022-11-25T15:24:55.997Z,16.80
2022-11-25T15:27:27.506Z,19.10
2022-11-25T15:29:57.208Z,27.20
2022-11-25T15:32:31.528Z,21.60
2022-11-25T15:35:01.341Z,18.00
2022-11-25T15:37:29.547Z,28.40
2022-11-25T15:40:28.978Z,21.00
2022-11-25T15:42:59.394Z,22.20
2022-11-25T15:45:34.811Z,26.30
2022-11-25T15:48:03.217Z,51.00
2022-11-25T15:50:34.200Z,22.20
2022-11-25T15:53:01.936Z,34.10
2022-11-25T15:55:38.520Z,26.40
2022-11-25T15:58:19.460Z,43.10
2022-11-25T16:01:04.549Z,37.60
2022-11-25T16:03:35.278Z,19.70
2022-11-25T16:06:03.162Z,18.20
2022-11-25T16:08:51.475Z,53.50
2022-11-25T16:11:19.990Z,27.70
2022-11-25T16:13:52.436Z,30.60
2022-11-25T16:16:21.643Z,25.30
2022-11-25T16:18:55.489Z,26.60
2022-11-25T16:21:43.556Z,23.30
2022-11-25T16:24:27.638Z,42.50
2022-11-25T16:27:00.806Z,32.20
2022-11-25T16:29:47.292Z,14.70
2022-11-25T16:32:17.845Z,12.50
2022-11-25T16:34:45.996Z,11.70
2022-11-25T16:37:13.697Z,13.00
2022-11-25T16:39:41.557Z,13.00
2022-11-25T16:42:18.533Z,13.00
2022-11-25T16:44:49.126Z,15.30
2022-11-25T16:47:18.684Z,17.90
2022-11-25T16:49:46.940Z,14.60
2022-11-25T16:52:14.872Z,15.70
2022-11-25T16:54:42.503Z,14.90
2022-11-25T16:57:17.894Z,34.00
2022-11-25T16:59:50.266Z,37.50
2022-11-25T17:02:22.050Z,34.90
2022-11-25T17:04:49.778Z,19.40
2022-11-25T17:07:34.682Z,21.50
2022-11-25T17:10:03.145Z,20.30
2022-11-25T17:12:33.648Z,39.20
2022-11-25T17:15:04.674Z,36.60
2022-11-25T17:17:32.892Z,19.40
2022-11-25T17:20:00.621Z,29.60
2022-11-25T17:22:33.374Z,27.90
2022-11-25T17:25:04.466Z,47.00
2022-11-25T17:27:33.037Z,35.40
2022-11-25T17:30:04.285Z,17.90
2022-11-25T17:32:33.194Z,17.70
2022-11-25T17:35:00.794Z,18.00
2022-11-25T17:37:30.953Z,15.60
2022-11-25T17:39:58.474Z,18.20
2022-11-25T17:42:32.049Z,17.90
2022-11-25T17:45:00.701Z,16.10
2022-11-25T17:47:28.400Z,19.40
2022-11-25T17:49:57.643Z,16.20
2022-11-25T17:52:25.154Z,13.40
2022-11-25T17:54:52.688Z,31.20
2022-11-25T17:57:21.860Z,35.40
2022-11-25T17:59:49.993Z,49.40
2022-11-25T18:02:20.612Z,28.20
2022-11-25T18:04:48.996Z,31.60
2022-11-25T18:07:17.560Z,23.60
2022-11-25T18:09:45.452Z,33.50
2022-11-25T18:12:27.692Z,23.20
2022-11-25T18:14:55.756Z,19.30
2022-11-25T18:17:23.211Z,27.00
2022-11-25T18:19:55.025Z,28.20
2022-11-25T18:22:24.194Z,19.30
2022-11-25T18:24:52.832Z,17.10
2022-11-25T18:27:28.610Z,19.60
2022-11-25T18:29:57.209Z,21.80
2022-11-25T18:32:25.775Z,21.80
2022-11-25T18:34:53.346Z,21.10
2022-11-25T18:37:21.480Z,20.80
2022-11-25T18:39:49.014Z,22.50
2022-11-25T18:42:33.490Z,19.40
2022-11-25T18:45:01.090Z,17.90
2022-11-25T18:47:28.592Z,20.90
2022-11-25T18:49:56.753Z,21.40
2022-11-25T18:52:24.850Z,23.60
2022-11-25T18:54:52.482Z,28.30
2022-11-25T18:57:20.448Z,40.90
2022-11-25T19:00:10.227Z,53.00
2022-11-25T19:02:36.434Z,21.80
2022-11-25T19:05:21.781Z,17.80
2022-11-25T19:07:53.439Z,28.50
2022-11-25T19:10:25.281Z,17.60
2022-11-25T19:12:59.162Z,38.70
2022-11-25T19:15:27.402Z,27.90
2022-11-25T19:18:02.075Z,18.10
2022-11-25T19:20:30.264Z,16.50
2022-11-25T19:23:01.257Z,25.40
2022-11-25T19:25:29.478Z,17.80
2022-11-25T19:27:59.495Z,24.10
2022-11-25T19:30:31.776Z,19.80
2022-11-25T19:33:01.916Z,23.60
2022-11-25T19:35:33.726Z,24.70
2022-11-25T19:38:01.592Z,19.00
2022-11-25T19:40:34.715Z,20.80
2022-11-25T19:43:05.811Z,20.30
2022-11-25T19:45:33.705Z,19.60
2022-11-25T19:48:06.945Z,21.50
2022-11-25T19:50:37.642Z,17.20
2022-11-25T19:53:05.751Z,16.70
2022-11-25T19:55:33.213Z,18.80
2022-11-25T19:58:00.721Z,17.10
2022-11-25T20:00:28.299Z,16.20
2022-11-25T20:02:56.357Z,22.30
2022-11-25T20:05:32.748Z,18.00
2022-11-25T20:08:00.929Z,18.00
2022-11-25T20:10:31.936Z,16.80
2022-11-25T20:12:59.662Z,15.40
2022-11-25T20:15:27.529Z,13.90
2022-11-25T20:17:59.877Z,16.90
2022-11-25T20:20:31.747Z,14.20
2022-11-25T20:23:03.960Z,17.40
2022-11-25T20:25:36.083Z,16.90
2022-11-25T20:28:03.670Z,23.70
2022-11-25T20:30:31.144Z,23.00
2022-11-25T20:32:58.622Z,17.30
2022-11-25T20:35:26.404Z,23.40
2022-11-25T20:37:54.707Z,24.20
2022-11-25T20:40:26.370Z,21.30
2022-11-25T20:42:53.870Z,18.10
2022-11-25T20:45:23.420Z,16.80
2022-11-25T20:47:52.803Z,14.90
2022-11-25T20:50:21.812Z,14.50
2022-11-25T20:52:50.281Z,14.60
2022-11-25T20:55:23.988Z,14.40
2022-11-25T20:57:52.712Z,16.20
2022-11-25T21:00:23.748Z,15.50
2022-11-25T21:02:53.119Z,15.30
2022-11-25T21:05:21.461Z,13.90
2022-11-25T21:07:50.138Z,16.90
2022-11-25T21:10:26.346Z,15.00
2022-11-25T21:12:54.918Z,14.90
2022-11-25T21:15:25.769Z,15.60
2022-11-25T21:17:53.240Z,13.80
2022-11-25T21:20:20.716Z,13.20
2022-11-25T21:22:50.875Z,12.90
2022-11-25T21:25:21.345Z,12.50
2022-11-25T21:27:51.021Z,13.20
2022-11-25T21:30:26.048Z,13.70
2022-11-25T21:32:56.267Z,14.80
2022-11-25T21:35:41.220Z,13.80
2022-11-25T21:38:16.900Z,13.80
2022-11-25T21:40:47.167Z,13.90
2022-11-25T21:43:28.270Z,13.80
2022-11-25T21:46:07.148Z,14.80
2022-11-25T21:48:36.197Z,14.80
2022-11-25T21:51:03.803Z,18.30
2022-11-25T21:53:37.037Z,18.00
2022-11-25T21:56:20.149Z,16.90
2022-11-25T21:58:47.636Z,17.60
2022-11-25T22:01:16.549Z,17.50
2022-11-25T22:03:44.141Z,16.80
2022-11-25T22:06:21.542Z,17.80
2022-11-25T22:08:49.399Z,18.70
2022-11-25T22:11:21.044Z,16.50
2022-11-25T22:13:49.508Z,17.00
2022-11-25T22:16:23.629Z,18.20
2022-11-25T22:18:51.222Z,20.30
2022-11-25T22:21:18.690Z,18.20
2022-11-25T22:23:46.275Z,18.40
2022-11-25T22:26:29.040Z,17.10
2022-11-25T22:28:57.328Z,17.50
2022-11-25T22:31:24.986Z,19.10
2022-11-25T22:33:54.404Z,20.90
2022-11-25T22:36:28.238Z,21.00
2022-11-25T22:38:58.930Z,21.00
2022-11-25T22:41:26.470Z,22.50
2022-11-25T22:43:54.330Z,22.30
2022-11-25T22:46:22.015Z,22.00
2022-11-25T22:48:49.693Z,19.90
2022-11-25T22:51:21.296Z,18.80
2022-11-25T22:53:48.747Z,19.10
2022-11-25T22:56:18.415Z,19.30
2022-11-25T22:58:46.815Z,18.90
2022-11-25T23:01:16.480Z,19.30
2022-11-25T23:03:44.548Z,19.50
2022-11-25T23:06:13.227Z,21.10
2022-11-25T23:08:40.761Z,20.10
2022-11-25T23:11:16.523Z,19.00
2022-11-25T23:13:44.129Z,18.70
2022-11-25T23:16:12.270Z,18.40
2022-11-25T23:18:43.263Z,17.70
2022-11-25T23:21:18.228Z,18.10
2022-11-25T23:23:45.965Z,18.70
2022-11-25T23:26:14.233Z,18.20
2022-11-25T23:28:42.189Z,17.10
2022-11-25T23:31:13.316Z,17.10
2022-11-25T23:33:48.060Z,17.40
2022-11-25T23:36:25.468Z,16.70
2022-11-25T23:38:56.184Z,16.70
2022-11-25T23:41:29.979Z,15.20
2022-11-25T23:44:02.922Z,16.10
2022-11-25T23:46:34.286Z,16.00
2022-11-25T23:49:03.530Z,17.20
2022-11-25T23:51:31.094Z,18.00
2022-11-25T23:53:58.931Z,17.10
2022-11-25T23:56:27.721Z,17.60
2022-11-25T23:58:55.320Z,17.50
